Ulverston, United Kingdom
Current Conditions -  °F | °C
As of 9:20 AM on Friday 31 Oct 2014 (Local Time) from EGNO Reporting Station
Clear Clear  
Wind Chill: 61°   Ceiling: Unl
Heat Index: 61°   Visibility: 5mi
Dew Point: 59°   Wind: 13mph
Humidity: 94%   Direction: 150°SSE
Pressure: 29.88"   Gusts: NA
Location:  54.2°N, 3.1°W
Report Text: EGNO 310920Z 15011KT 8000 NSC 16/15 Q1012
Loading
Personal Weather Stations






























Interactive Weather Map
Tropical Storm Tracking
New forecast layout! Learn more

10-Day Weather Forecast

Advertisements
Track Severe Weather on mobile